Time;durP1;ratioP1;P1;durP2;ratioP2;P2;SDS_P1;SDS_P2;PMS_P1;PMS_P2;Temp;Humidity;BMP_temperature;BMP_pressure;BME280_temperature;BME280_humidity;BME280_pressure;Samples;Min_cycle;Max_cycle;Signal;HPM_P1;HPM_P2
2023/01/30 00:01:56;;;;;;;7.18;1.58;;;;;;;;;;6117813;23;20025;-60
2023/01/30 00:04:24;;;;;;;11.63;2.10;;;;;;;;;;6108482;23;20025;-60
2023/01/30 00:06:53;;;;;;;10.32;1.73;;;;;;;;;;6122830;23;20057;-60
2023/01/30 00:09:20;;;;;;;11.70;1.83;;;;;;;;;;6113084;23;20045;-59
2023/01/30 00:11:48;;;;;;;7.93;1.33;;;;;;;;;;6125100;23;20057;-61
2023/01/30 00:14:15;;;;;;;8.63;1.63;;;;;;;;;;6085787;23;20448;-60
2023/01/30 00:16:43;;;;;;;12.00;1.67;;;;;;;;;;6127661;23;20017;-60
2023/01/30 00:19:12;;;;;;;7.53;1.63;;;;;;;;;;6118563;23;20493;-59
2023/01/30 00:21:42;;;;;;;7.05;1.35;;;;;;;;;;6116275;23;20338;-61
2023/01/30 00:24:09;;;;;;;8.17;1.30;;;;;;;;;;6116347;23;20124;-60
2023/01/30 00:26:37;;;;;;;7.00;1.27;;;;;;;;;;6118339;23;20014;-61
2023/01/30 00:29:05;;;;;;;9.45;1.92;;;;;;;;;;6114498;23;20014;-59
2023/01/30 00:31:33;;;;;;;12.05;1.98;;;;;;;;;;6119727;23;20101;-60
2023/01/30 00:34:00;;;;;;;9.82;1.85;;;;;;;;;;6102331;23;20247;-60
2023/01/30 00:36:29;;;;;;;9.93;1.90;;;;;;;;;;6076631;23;20069;-60
2023/01/30 00:38:58;;;;;;;7.72;1.90;;;;;;;;;;6115856;23;20310;-59
2023/01/30 00:47:03;;;;;;;7.93;1.27;;;;;;;;;;6123839;23;20104;-60
2023/01/30 00:47:05;;;;;;;9.00;1.48;;;;;;;;;;6109550;23;20053;-59
2023/01/30 00:49:33;;;;;;;6.90;1.23;;;;;;;;;;6124935;23;20045;-60
2023/01/30 00:52:02;;;;;;;12.05;2.38;;;;;;;;;;6113755;23;20529;-60
2023/01/30 00:54:30;;;;;;;7.78;2.03;;;;;;;;;;6119176;23;20041;-59
2023/01/30 00:56:57;;;;;;;9.00;2.10;;;;;;;;;;6114348;23;20045;-60
2023/01/30 00:59:25;;;;;;;8.93;2.15;;;;;;;;;;6125216;23;20097;-59
2023/01/30 01:01:53;;;;;;;14.33;1.77;;;;;;;;;;6117409;23;20018;-61
2023/01/30 01:04:21;;;;;;;12.80;2.28;;;;;;;;;;6124817;23;20454;-60
2023/01/30 01:06:49;;;;;;;8.27;1.63;;;;;;;;;;6125684;23;20058;-60
2023/01/30 01:09:18;;;;;;;8.60;1.95;;;;;;;;;;6113564;23;20476;-60
2023/01/30 01:11:46;;;;;;;7.97;1.95;;;;;;;;;;6130187;23;20420;-60
2023/01/30 01:14:13;;;;;;;8.07;2.27;;;;;;;;;;6117634;23;20061;-60
2023/01/30 01:16:41;;;;;;;7.05;2.10;;;;;;;;;;6132821;23;20013;-60
2023/01/30 01:19:09;;;;;;;7.60;2.03;;;;;;;;;;6117688;23;20017;-60
2023/01/30 01:21:36;;;;;;;9.90;1.92;;;;;;;;;;6131609;23;20028;-59
2023/01/30 01:24:04;;;;;;;10.00;2.05;;;;;;;;;;6118165;23;20212;-60
2023/01/30 01:26:36;;;;;;;15.97;2.20;;;;;;;;;;6128400;23;20014;-61
2023/01/30 01:29:04;;;;;;;13.63;2.10;;;;;;;;;;6120413;23;20442;-59
2023/01/30 01:31:31;;;;;;;10.60;1.98;;;;;;;;;;6131458;23;20052;-59
2023/01/30 01:33:59;;;;;;;7.82;2.53;;;;;;;;;;6115343;23;20334;-60
2023/01/30 01:36:27;;;;;;;13.20;2.75;;;;;;;;;;6105543;23;20104;-60
2023/01/30 01:39:15;;;;;;;8.73;2.90;;;;;;;;;;6110219;23;20017;-60
2023/01/30 01:41:44;;;;;;;13.88;2.53;;;;;;;;;;6129240;23;20476;-60
2023/01/30 01:44:15;;;;;;;10.30;2.50;;;;;;;;;;6124974;23;20025;-59
2023/01/30 01:46:44;;;;;;;13.52;3.28;;;;;;;;;;6120904;23;20018;-60
2023/01/30 01:49:15;;;;;;;14.52;2.92;;;;;;;;;;6115032;23;20829;-60
2023/01/30 01:51:47;;;;;;;10.87;3.23;;;;;;;;;;6111214;23;20020;-60
2023/01/30 01:54:16;;;;;;;9.15;2.42;;;;;;;;;;6121786;23;20017;-59
2023/01/30 01:56:47;;;;;;;10.65;2.67;;;;;;;;;;6120534;23;20342;-59
2023/01/30 01:59:19;;;;;;;11.38;2.90;;;;;;;;;;6101716;23;20100;-59
2023/01/30 02:01:47;;;;;;;13.57;3.15;;;;;;;;;;6090472;23;20013;-60
2023/01/30 02:05:00;;;;;;;11.57;2.73;;;;;;;;;;6110375;23;20013;-59
2023/01/30 02:07:03;;;;;;;10.65;2.50;;;;;;;;;;6095309;23;20014;-60
2023/01/30 02:09:30;;;;;;;9.75;3.20;;;;;;;;;;6126450;23;20786;-59
2023/01/30 02:12:04;;;;;;;10.38;2.67;;;;;;;;;;6131078;23;20037;-59
2023/01/30 02:14:33;;;;;;;13.25;2.67;;;;;;;;;;6125375;23;20056;-60
2023/01/30 02:17:01;;;;;;;14.83;3.23;;;;;;;;;;6122728;23;20020;-59
2023/01/30 02:19:32;;;;;;;10.70;2.72;;;;;;;;;;6126345;23;20643;-59
2023/01/30 02:22:08;;;;;;;10.75;2.70;;;;;;;;;;6127813;23;20021;-58
2023/01/30 02:24:51;;;;;;;10.50;2.90;;;;;;;;;;6126340;23;20104;-59
2023/01/30 02:27:28;;;;;;;13.15;2.42;;;;;;;;;;6119152;23;20345;-52
2023/01/30 02:30:08;;;;;;;13.33;2.73;;;;;;;;;;6131178;23;20021;-61
2023/01/30 02:32:41;;;;;;;11.27;2.40;;;;;;;;;;6115437;23;20092;-61
2023/01/30 02:35:15;;;;;;;10.10;2.42;;;;;;;;;;6124551;23;20013;-60
2023/01/30 02:37:52;;;;;;;9.98;2.70;;;;;;;;;;6127038;23;20417;-62
2023/01/30 02:40:29;;;;;;;9.70;3.13;;;;;;;;;;6098245;23;20021;-60
2023/01/30 02:43:01;;;;;;;9.37;2.50;;;;;;;;;;6127454;23;20017;-59
2023/01/30 02:45:32;;;;;;;13.23;2.92;;;;;;;;;;6125398;23;20030;-61
2023/01/30 02:48:02;;;;;;;9.68;2.28;;;;;;;;;;6119973;23;20113;-60
2023/01/30 02:50:34;;;;;;;10.80;2.47;;;;;;;;;;6123266;23;20025;-61
2023/01/30 02:53:04;;;;;;;12.40;2.53;;;;;;;;;;6124287;23;20041;-62
2023/01/30 02:55:31;;;;;;;9.40;2.47;;;;;;;;;;6123951;23;20131;-60
2023/01/30 02:58:00;;;;;;;10.15;2.72;;;;;;;;;;6119339;23;20024;-58
2023/01/30 03:00:34;;;;;;;9.45;2.50;;;;;;;;;;6096877;23;20726;-59
2023/01/30 03:03:09;;;;;;;12.00;2.35;;;;;;;;;;6114292;23;20018;-60
2023/01/30 03:05:50;;;;;;;9.30;3.28;;;;;;;;;;6125642;23;20018;-60
2023/01/30 03:08:23;;;;;;;12.07;3.57;;;;;;;;;;6119017;23;20044;-61
2023/01/30 03:10:54;;;;;;;8.68;2.58;;;;;;;;;;6124770;23;20088;-60
2023/01/30 03:13:28;;;;;;;10.68;2.85;;;;;;;;;;6125198;23;20021;-61
2023/01/30 03:15:59;;;;;;;12.85;2.70;;;;;;;;;;6118859;23;20396;-59
2023/01/30 03:18:29;;;;;;;8.10;2.33;;;;;;;;;;6130602;23;20017;-61
2023/01/30 03:20:57;;;;;;;10.67;2.53;;;;;;;;;;6113811;23;20013;-61
2023/01/30 03:23:24;;;;;;;7.88;2.45;;;;;;;;;;6132096;23;20021;-61
2023/01/30 03:25:57;;;;;;;10.55;2.40;;;;;;;;;;6109998;23;20049;-59
2023/01/30 03:28:25;;;;;;;8.60;2.60;;;;;;;;;;6124182;23;20014;-59
2023/01/30 03:30:53;;;;;;;13.32;3.20;;;;;;;;;;6122574;23;20458;-62
2023/01/30 03:33:21;;;;;;;10.43;2.43;;;;;;;;;;6130295;23;20412;-61
2023/01/30 03:35:51;;;;;;;10.02;3.10;;;;;;;;;;6104617;23;20038;-59
2023/01/30 03:38:19;;;;;;;9.85;2.90;;;;;;;;;;6127052;23;20048;-61
2023/01/30 03:40:46;;;;;;;9.43;2.85;;;;;;;;;;6122780;23;20013;-61
2023/01/30 03:43:14;;;;;;;14.25;3.33;;;;;;;;;;6124605;23;20068;-62
2023/01/30 03:45:42;;;;;;;6.90;2.43;;;;;;;;;;6120579;23;20034;-62
2023/01/30 03:48:10;;;;;;;13.68;2.70;;;;;;;;;;6120697;23;20041;-59
2023/01/30 03:50:39;;;;;;;8.85;2.42;;;;;;;;;;6123496;23;20024;-61
2023/01/30 03:53:09;;;;;;;10.27;2.58;;;;;;;;;;6119482;23;20087;-61
2023/01/30 03:55:38;;;;;;;14.02;3.70;;;;;;;;;;6120726;23;20041;-62
2023/01/30 03:58:05;;;;;;;8.33;2.60;;;;;;;;;;6113857;23;20068;-59
2023/01/30 04:00:33;;;;;;;10.02;2.88;;;;;;;;;;6130749;23;20630;-61
2023/01/30 04:03:01;;;;;;;14.68;2.63;;;;;;;;;;6117402;23;20104;-61
2023/01/30 04:05:28;;;;;;;6.95;2.70;;;;;;;;;;6096999;23;20017;-62
2023/01/30 04:07:56;;;;;;;7.50;1.95;;;;;;;;;;6117659;23;20096;-60
2023/01/30 04:10:25;;;;;;;7.67;1.97;;;;;;;;;;6125722;23;20014;-61
2023/01/30 04:12:53;;;;;;;9.13;1.70;;;;;;;;;;6119843;23;20018;-61
2023/01/30 04:15:21;;;;;;;7.68;1.80;;;;;;;;;;6122799;23;20021;-61
2023/01/30 04:17:48;;;;;;;10.43;1.98;;;;;;;;;;6113168;23;20017;-61
2023/01/30 04:20:16;;;;;;;7.53;1.50;;;;;;;;;;6126669;23;20017;-62
2023/01/30 04:22:44;;;;;;;8.60;1.83;;;;;;;;;;6118202;23;20068;-62
2023/01/30 04:25:14;;;;;;;7.47;1.40;;;;;;;;;;6127668;23;20431;-62
2023/01/30 04:27:45;;;;;;;9.27;1.55;;;;;;;;;;6127383;23;20334;-62
2023/01/30 04:30:14;;;;;;;8.80;1.50;;;;;;;;;;6132114;23;20021;-61
2023/01/30 04:32:42;;;;;;;7.80;1.40;;;;;;;;;;6087240;23;20028;-62
2023/01/30 04:35:10;;;;;;;7.33;1.40;;;;;;;;;;6105015;23;20068;-61
2023/01/30 04:37:40;;;;;;;7.55;1.70;;;;;;;;;;6132509;23;20029;-62
2023/01/30 04:40:08;;;;;;;4.72;1.17;;;;;;;;;;6127912;23;20515;-61
2023/01/30 04:42:37;;;;;;;8.02;1.20;;;;;;;;;;6118817;23;20450;-59
2023/01/30 04:45:07;;;;;;;4.13;1.02;;;;;;;;;;6128356;23;20535;-61
2023/01/30 04:47:35;;;;;;;8.77;0.87;;;;;;;;;;6089342;23;20029;-63
2023/01/30 04:50:04;;;;;;;5.65;0.90;;;;;;;;;;6127493;23;20021;-63
2023/01/30 04:52:31;;;;;;;12.63;1.27;;;;;;;;;;6102804;23;20049;-61
2023/01/30 04:54:59;;;;;;;8.75;1.02;;;;;;;;;;6128415;23;20064;-61
2023/01/30 04:57:27;;;;;;;9.40;0.75;;;;;;;;;;6127388;23;20028;-61
2023/01/30 04:59:55;;;;;;;12.23;1.33;;;;;;;;;;6122205;23;20544;-61
2023/01/30 05:02:25;;;;;;;10.45;1.05;;;;;;;;;;6122661;23;20021;-61
2023/01/30 05:04:54;;;;;;;12.80;1.13;;;;;;;;;;6127386;23;20381;-62
2023/01/30 05:07:22;;;;;;;10.10;1.52;;;;;;;;;;6120895;23;20025;-61
2023/01/30 05:09:49;;;;;;;9.75;0.95;;;;;;;;;;6120568;23;20013;-61
2023/01/30 05:12:17;;;;;;;13.90;1.30;;;;;;;;;;6124179;23;20456;-61
2023/01/30 05:14:45;;;;;;;10.45;1.30;;;;;;;;;;6124931;23;20014;-60
2023/01/30 05:17:13;;;;;;;8.52;1.20;;;;;;;;;;6101559;23;20068;-61
2023/01/30 05:19:42;;;;;;;9.52;2.28;;;;;;;;;;6128191;23;20017;-61
2023/01/30 05:22:11;;;;;;;13.32;1.35;;;;;;;;;;6119819;23;20041;-61
2023/01/30 05:24:38;;;;;;;10.70;1.70;;;;;;;;;;6099958;23;20013;-61
2023/01/30 05:27:07;;;;;;;10.15;0.82;;;;;;;;;;6119929;23;20097;-61
2023/01/30 05:29:34;;;;;;;11.15;0.82;;;;;;;;;;6120538;23;20097;-61
2023/01/30 05:32:03;;;;;;;13.32;0.82;;;;;;;;;;6132619;23;20068;-62
2023/01/30 05:34:30;;;;;;;8.70;0.85;;;;;;;;;;6111652;23;20014;-61
2023/01/30 05:37:00;;;;;;;9.13;0.87;;;;;;;;;;6127962;23;20013;-61
2023/01/30 05:39:27;;;;;;;10.48;0.90;;;;;;;;;;6119490;23;20143;-61
2023/01/30 05:41:56;;;;;;;10.48;0.85;;;;;;;;;;6128062;23;20072;-61
2023/01/30 05:44:24;;;;;;;8.30;0.95;;;;;;;;;;6123185;23;20017;-62
2023/01/30 05:46:52;;;;;;;12.88;1.30;;;;;;;;;;6116866;23;20068;-63
2023/01/30 05:49:19;;;;;;;14.17;1.10;;;;;;;;;;6122334;23;20028;-61
2023/01/30 05:51:47;;;;;;;12.82;1.10;;;;;;;;;;6113623;23;20017;-61
2023/01/30 05:54:19;;;;;;;10.52;1.45;;;;;;;;;;6130254;23;20104;-61
2023/01/30 05:56:48;;;;;;;5.88;0.70;;;;;;;;;;6121843;23;20483;-61
2023/01/30 05:59:18;;;;;;;7.50;0.90;;;;;;;;;;6128493;23;20092;-62
2023/01/30 06:01:45;;;;;;;11.03;0.90;;;;;;;;;;6112985;23;20018;-61
2023/01/30 06:04:13;;;;;;;14.02;1.00;;;;;;;;;;6120934;23;20064;-61
2023/01/30 06:06:41;;;;;;;8.75;0.68;;;;;;;;;;6106543;23;20029;-60
2023/01/30 06:09:10;;;;;;;6.68;1.05;;;;;;;;;;6120596;23;20018;-61
2023/01/30 06:11:39;;;;;;;10.98;1.00;;;;;;;;;;6119654;23;20009;-61
2023/01/30 06:14:07;;;;;;;9.50;0.97;;;;;;;;;;6108648;23;20041;-60
2023/01/30 06:16:35;;;;;;;10.40;1.23;;;;;;;;;;6126743;23;20105;-61
2023/01/30 06:19:06;;;;;;;9.75;0.80;;;;;;;;;;6119338;23;20108;-61
2023/01/30 06:21:33;;;;;;;10.38;0.70;;;;;;;;;;6118570;23;20456;-61
2023/01/30 06:24:01;;;;;;;9.18;0.90;;;;;;;;;;6120906;23;20041;-61
2023/01/30 06:26:28;;;;;;;8.07;0.70;;;;;;;;;;6117324;23;20299;-61
2023/01/30 06:28:57;;;;;;;8.02;0.80;;;;;;;;;;6118339;23;20331;-61
2023/01/30 06:31:25;;;;;;;13.30;1.08;;;;;;;;;;6117937;23;20356;-61
2023/01/30 06:33:53;;;;;;;11.95;1.25;;;;;;;;;;6121624;23;20017;-61
2023/01/30 06:36:21;;;;;;;7.80;0.70;;;;;;;;;;6119724;23;20419;-61
2023/01/30 06:38:48;;;;;;;9.93;0.83;;;;;;;;;;6120359;23;20018;-61
2023/01/30 06:41:16;;;;;;;9.55;0.60;;;;;;;;;;6118251;23;20017;-61
2023/01/30 06:43:44;;;;;;;11.55;0.60;;;;;;;;;;6096482;23;20531;-61
2023/01/30 06:46:13;;;;;;;6.13;0.43;;;;;;;;;;6113566;23;20017;-62
2023/01/30 06:48:40;;;;;;;11.65;0.70;;;;;;;;;;6115796;23;20437;-59
2023/01/30 06:51:08;;;;;;;5.80;0.57;;;;;;;;;;6107005;23;20028;-61
2023/01/30 06:53:36;;;;;;;5.43;0.52;;;;;;;;;;6119103;23;20026;-61
2023/01/30 06:56:03;;;;;;;9.38;0.80;;;;;;;;;;6109570;23;20045;-61
2023/01/30 06:58:31;;;;;;;10.52;0.90;;;;;;;;;;6121354;23;20108;-60
2023/01/30 07:00:58;;;;;;;8.73;0.88;;;;;;;;;;6119048;23;20064;-61
2023/01/30 07:03:27;;;;;;;10.83;0.67;;;;;;;;;;6125796;23;20057;-60
2023/01/30 07:05:55;;;;;;;7.43;0.65;;;;;;;;;;6108899;23;20444;-61
2023/01/30 07:08:23;;;;;;;14.15;0.88;;;;;;;;;;6118810;23;20463;-61
2023/01/30 07:10:51;;;;;;;8.07;0.68;;;;;;;;;;6122320;23;20496;-61
2023/01/30 07:13:19;;;;;;;7.05;0.50;;;;;;;;;;6122112;23;20021;-61
2023/01/30 07:15:53;;;;;;;9.50;0.70;;;;;;;;;;6116662;23;20490;-62
2023/01/30 07:18:20;;;;;;;11.25;0.65;;;;;;;;;;6128983;23;20048;-59
2023/01/30 07:20:49;;;;;;;9.27;0.90;;;;;;;;;;6116912;23;20185;-61
2023/01/30 07:23:17;;;;;;;10.52;0.93;;;;;;;;;;6127100;23;20013;-62
2023/01/30 07:25:45;;;;;;;8.65;0.70;;;;;;;;;;6119770;23;20068;-62
2023/01/30 07:28:17;;;;;;;9.50;0.60;;;;;;;;;;6126628;23;20662;-61
2023/01/30 07:30:44;;;;;;;8.48;0.80;;;;;;;;;;6120412;23;20026;-61
2023/01/30 07:33:12;;;;;;;7.53;0.65;;;;;;;;;;6125669;23;20196;-62
2023/01/30 07:35:40;;;;;;;11.07;0.90;;;;;;;;;;6124162;23;20017;-61
2023/01/30 07:38:10;;;;;;;9.45;0.60;;;;;;;;;;6093877;23;20057;-61
2023/01/30 07:40:38;;;;;;;8.33;0.77;;;;;;;;;;6100379;23;20104;-61
2023/01/30 07:43:06;;;;;;;13.35;1.05;;;;;;;;;;6123921;23;20009;-61
2023/01/30 07:45:35;;;;;;;7.32;0.85;;;;;;;;;;6125249;23;20025;-61
2023/01/30 07:48:03;;;;;;;7.88;1.00;;;;;;;;;;6109210;23;20438;-62
2023/01/30 07:50:31;;;;;;;8.75;0.68;;;;;;;;;;6126764;23;20085;-62
2023/01/30 07:52:59;;;;;;;9.73;0.97;;;;;;;;;;6117266;23;20017;-61
2023/01/30 07:55:28;;;;;;;6.43;0.80;;;;;;;;;;6129299;23;20021;-61
2023/01/30 07:57:56;;;;;;;9.15;0.95;;;;;;;;;;6116526;23;20013;-62
2023/01/30 08:00:23;;;;;;;10.40;1.40;;;;;;;;;;6122826;23;20326;-61
2023/01/30 08:02:51;;;;;;;13.88;1.02;;;;;;;;;;6097192;23;20052;-62
2023/01/30 08:05:19;;;;;;;9.70;0.43;;;;;;;;;;6124214;23;20018;-62
2023/01/30 08:07:47;;;;;;;10.93;1.23;;;;;;;;;;6126809;23;20022;-62
2023/01/30 08:10:15;;;;;;;7.70;0.90;;;;;;;;;;6119745;23;20041;-64
2023/01/30 08:12:45;;;;;;;14.00;1.17;;;;;;;;;;6129142;23;20040;-61
2023/01/30 08:15:12;;;;;;;12.30;1.00;;;;;;;;;;6121660;23;20520;-61
2023/01/30 08:17:40;;;;;;;7.17;0.93;;;;;;;;;;6122406;23;20056;-60
2023/01/30 08:20:09;;;;;;;10.63;1.00;;;;;;;;;;6099661;23;20021;-61
2023/01/30 08:22:36;;;;;;;11.70;0.98;;;;;;;;;;6113384;23;20092;-63
2023/01/30 08:25:05;;;;;;;7.63;1.27;;;;;;;;;;6120881;23;20453;-62
2023/01/30 08:27:32;;;;;;;9.27;0.50;;;;;;;;;;6123802;23;20044;-62
2023/01/30 08:30:01;;;;;;;11.60;0.90;;;;;;;;;;6119627;23;20018;-59
2023/01/30 08:32:29;;;;;;;9.75;0.70;;;;;;;;;;6121398;23;20631;-62
2023/01/30 08:34:57;;;;;;;13.68;0.90;;;;;;;;;;6122354;23;20025;-62
2023/01/30 08:37:25;;;;;;;8.23;0.93;;;;;;;;;;6095047;23;20014;-62
2023/01/30 08:39:56;;;;;;;8.63;0.90;;;;;;;;;;6098427;23;20382;-62
2023/01/30 08:42:23;;;;;;;17.67;1.73;;;;;;;;;;6129418;23;20117;-62
2023/01/30 08:44:51;;;;;;;15.80;0.88;;;;;;;;;;6116213;23;20021;-62
2023/01/30 08:47:22;;;;;;;7.22;0.75;;;;;;;;;;6125666;23;20072;-63
2023/01/30 08:49:51;;;;;;;11.80;0.80;;;;;;;;;;6124650;23;20446;-62
2023/01/30 08:52:19;;;;;;;8.27;1.05;;;;;;;;;;6115875;23;20022;-63
2023/01/30 08:54:47;;;;;;;10.13;0.90;;;;;;;;;;6120410;23;20041;-63
2023/01/30 08:57:15;;;;;;;6.90;0.80;;;;;;;;;;6113983;23;20018;-62
2023/01/30 08:59:42;;;;;;;11.20;0.77;;;;;;;;;;6094928;23;20472;-62
2023/01/30 09:02:11;;;;;;;10.30;1.13;;;;;;;;;;6118950;23;20064;-62
2023/01/30 09:04:40;;;;;;;11.43;0.73;;;;;;;;;;6108526;23;20021;-63
2023/01/30 09:07:08;;;;;;;10.40;0.50;;;;;;;;;;6116156;23;20018;-62
2023/01/30 09:09:37;;;;;;;6.13;0.70;;;;;;;;;;6119751;23;20511;-62
2023/01/30 09:12:05;;;;;;;5.88;0.52;;;;;;;;;;6096887;23;20056;-63
2023/01/30 09:14:33;;;;;;;6.95;0.43;;;;;;;;;;6120517;23;20145;-63
2023/01/30 09:17:00;;;;;;;9.27;1.10;;;;;;;;;;6103982;23;20100;-62
2023/01/30 09:19:28;;;;;;;11.67;1.10;;;;;;;;;;6108720;23;20014;-62
2023/01/30 09:21:57;;;;;;;10.23;0.98;;;;;;;;;;6109396;23;20030;-62
2023/01/30 09:24:26;;;;;;;7.55;1.02;;;;;;;;;;6123324;23;20072;-62
2023/01/30 09:26:57;;;;;;;9.43;0.77;;;;;;;;;;6129816;23;20021;-62
2023/01/30 09:29:25;;;;;;;8.25;0.73;;;;;;;;;;6119728;23;20025;-62
2023/01/30 09:31:55;;;;;;;9.03;0.80;;;;;;;;;;6119841;23;20052;-63
2023/01/30 09:34:26;;;;;;;5.90;0.60;;;;;;;;;;6122390;23;20280;-62
2023/01/30 09:36:54;;;;;;;9.70;0.60;;;;;;;;;;6128364;23;20017;-63
2023/01/30 09:39:23;;;;;;;7.93;0.65;;;;;;;;;;6124097;23;20014;-62
2023/01/30 09:41:58;;;;;;;11.15;0.77;;;;;;;;;;6127633;23;20013;-62
2023/01/30 09:44:44;;;;;;;7.47;0.60;;;;;;;;;;6125639;23;20453;-63
2023/01/30 09:47:12;;;;;;;12.35;1.05;;;;;;;;;;6127220;23;20018;-62
2023/01/30 09:49:46;;;;;;;13.18;0.70;;;;;;;;;;6114403;23;20577;-61
2023/01/30 09:52:19;;;;;;;14.88;0.90;;;;;;;;;;6126877;23;20385;-62
2023/01/30 09:54:48;;;;;;;7.45;1.05;;;;;;;;;;6118888;23;20064;-62
2023/01/30 09:57:17;;;;;;;11.40;0.70;;;;;;;;;;6101022;23;20562;-61
2023/01/30 09:59:57;;;;;;;7.88;0.38;;;;;;;;;;6127383;23;20028;-63
2023/01/30 10:02:31;;;;;;;16.90;0.88;;;;;;;;;;6122145;23;20094;-62
2023/01/30 10:05:01;;;;;;;6.97;0.52;;;;;;;;;;6126741;23;20017;-63
2023/01/30 10:07:33;;;;;;;6.88;1.08;;;;;;;;;;6121094;23;20055;-63
2023/01/30 10:10:05;;;;;;;6.27;0.50;;;;;;;;;;6128081;23;20064;-61
2023/01/30 10:12:39;;;;;;;9.10;0.80;;;;;;;;;;6127869;23;20022;-63
2023/01/30 10:15:22;;;;;;;7.65;0.70;;;;;;;;;;6111345;23;20017;-63
2023/01/30 10:17:56;;;;;;;16.73;1.40;;;;;;;;;;6130171;23;20335;-63
2023/01/30 10:20:31;;;;;;;11.98;1.27;;;;;;;;;;6122184;23;20427;-62
2023/01/30 10:23:04;;;;;;;8.27;0.67;;;;;;;;;;6128388;23;20097;-63
2023/01/30 10:25:36;;;;;;;10.13;0.68;;;;;;;;;;6119073;23;20017;-61
2023/01/30 10:28:06;;;;;;;7.03;0.65;;;;;;;;;;6116721;23;20060;-63
2023/01/30 10:30:34;;;;;;;9.73;0.60;;;;;;;;;;6130002;23;20516;-62
2023/01/30 10:33:04;;;;;;;9.80;0.90;;;;;;;;;;6120519;23;20017;-62
2023/01/30 10:35:34;;;;;;;10.40;0.60;;;;;;;;;;6129996;23;20041;-62
2023/01/30 10:38:06;;;;;;;7.95;0.43;;;;;;;;;;6094508;23;20423;-62
2023/01/30 10:40:39;;;;;;;10.25;0.82;;;;;;;;;;6126416;23;20043;-63
2023/01/30 10:43:13;;;;;;;7.75;0.80;;;;;;;;;;6119494;23;20048;-63
2023/01/30 10:45:43;;;;;;;12.50;0.90;;;;;;;;;;6131385;23;20044;-62
2023/01/30 10:48:18;;;;;;;11.57;0.80;;;;;;;;;;6118846;23;20037;-62
2023/01/30 10:50:50;;;;;;;10.60;1.27;;;;;;;;;;6126755;23;20049;-62
2023/01/30 10:53:22;;;;;;;6.18;0.30;;;;;;;;;;6119589;23;20032;-60
2023/01/30 10:55:55;;;;;;;8.52;0.80;;;;;;;;;;6122178;23;20100;-62
2023/01/30 10:58:27;;;;;;;7.97;0.80;;;;;;;;;;6123962;23;20202;-61
2023/01/30 11:00:59;;;;;;;9.13;0.73;;;;;;;;;;6118360;23;20354;-62
2023/01/30 11:03:30;;;;;;;7.47;0.70;;;;;;;;;;6095352;23;20091;-62
2023/01/30 11:05:59;;;;;;;13.05;1.50;;;;;;;;;;6119003;23;20017;-63
2023/01/30 11:08:28;;;;;;;7.00;0.70;;;;;;;;;;6122208;23;20101;-63
2023/01/30 11:10:58;;;;;;;7.93;0.50;;;;;;;;;;6121981;23;20018;-63
2023/01/30 11:13:29;;;;;;;8.20;0.73;;;;;;;;;;6120794;23;20029;-63
2023/01/30 11:15:58;;;;;;;5.78;0.57;;;;;;;;;;6126532;23;20462;-62
2023/01/30 11:18:26;;;;;;;6.95;0.73;;;;;;;;;;6126103;23;20021;-62
2023/01/30 11:21:20;;;;;;;16.35;1.00;;;;;;;;;;6126517;23;20516;-62
2023/01/30 11:23:51;;;;;;;9.82;1.75;;;;;;;;;;6116886;23;20014;-62
2023/01/30 11:26:23;;;;;;;10.30;0.93;;;;;;;;;;6099104;23;20068;-62
2023/01/30 11:29:15;;;;;;;8.07;0.90;;;;;;;;;;6117525;23;20100;-62
2023/01/30 11:31:50;;;;;;;9.30;0.82;;;;;;;;;;6118957;23;20029;-62
2023/01/30 11:34:19;;;;;;;8.43;0.55;;;;;;;;;;6128454;23;20361;-63
2023/01/30 11:36:47;;;;;;;10.40;0.80;;;;;;;;;;6117817;23;20040;-62
2023/01/30 11:39:23;;;;;;;7.07;0.70;;;;;;;;;;6129668;23;20020;-62
2023/01/30 11:42:00;;;;;;;13.57;0.60;;;;;;;;;;6123272;23;20096;-61
2023/01/30 11:44:33;;;;;;;12.05;0.73;;;;;;;;;;6125243;23;20041;-63
2023/01/30 11:47:03;;;;;;;6.47;0.68;;;;;;;;;;6127991;23;20014;-62
2023/01/30 11:49:33;;;;;;;7.07;0.73;;;;;;;;;;6120805;23;20503;-62
2023/01/30 11:52:23;;;;;;;11.73;0.80;;;;;;;;;;6128404;23;20027;-60
2023/01/30 11:54:52;;;;;;;10.23;0.93;;;;;;;;;;6089246;23;20014;-63
2023/01/30 11:57:23;;;;;;;11.23;0.95;;;;;;;;;;6130572;23;20372;-61
2023/01/30 11:59:56;;;;;;;9.63;1.35;;;;;;;;;;6124751;23;20084;-62
2023/01/30 12:02:25;;;;;;;9.25;0.60;;;;;;;;;;6113659;23;20018;-61
2023/01/30 12:04:55;;;;;;;7.70;0.80;;;;;;;;;;6123311;23;20376;-63
2023/01/30 12:07:24;;;;;;;10.82;0.73;;;;;;;;;;6118677;23;20400;-62
2023/01/30 12:09:53;;;;;;;17.15;0.68;;;;;;;;;;6127861;23;20072;-62
2023/01/30 12:12:28;;;;;;;10.43;0.80;;;;;;;;;;6120912;23;20017;-60
2023/01/30 12:15:01;;;;;;;11.40;0.73;;;;;;;;;;6123423;23;20348;-62
2023/01/30 12:17:33;;;;;;;14.60;0.73;;;;;;;;;;6121698;23;20726;-62
2023/01/30 12:20:03;;;;;;;10.43;1.40;;;;;;;;;;6097339;23;20017;-62
2023/01/30 12:22:33;;;;;;;14.52;1.17;;;;;;;;;;6095070;23;20018;-62
2023/01/30 12:25:02;;;;;;;10.32;0.80;;;;;;;;;;6124049;23;20466;-62
2023/01/30 12:27:37;;;;;;;9.95;1.13;;;;;;;;;;6118970;23;20862;-62
2023/01/30 12:30:15;;;;;;;13.00;1.00;;;;;;;;;;6118398;23;20077;-63
2023/01/30 12:32:45;;;;;;;6.63;0.85;;;;;;;;;;6125981;23;20013;-63
2023/01/30 12:35:15;;;;;;;10.10;0.82;;;;;;;;;;6120446;23;20466;-62
2023/01/30 12:37:47;;;;;;;8.65;1.13;;;;;;;;;;6125510;23;20500;-62
2023/01/30 12:40:23;;;;;;;13.35;1.13;;;;;;;;;;6082088;23;20139;-62
2023/01/30 12:43:06;;;;;;;9.97;1.20;;;;;;;;;;6083415;23;20057;-62
2023/01/30 12:45:35;;;;;;;11.15;1.02;;;;;;;;;;6128083;23;20059;-61
2023/01/30 12:48:17;;;;;;;7.43;0.80;;;;;;;;;;6111730;23;20658;-62
2023/01/30 12:50:55;;;;;;;6.50;0.90;;;;;;;;;;6130425;23;20096;-62
2023/01/30 12:53:36;;;;;;;10.82;1.20;;;;;;;;;;6123061;23;20075;-62
2023/01/30 12:56:21;;;;;;;8.43;1.17;;;;;;;;;;6112954;23;20483;-62
2023/01/30 12:58:53;;;;;;;10.70;1.13;;;;;;;;;;6127643;23;20017;-62
2023/01/30 13:01:28;;;;;;;10.43;1.15;;;;;;;;;;6095919;23;20021;-62
2023/01/30 13:04:02;;;;;;;12.60;1.02;;;;;;;;;;6116093;23;20014;-63
2023/01/30 13:06:39;;;;;;;8.32;0.80;;;;;;;;;;6121321;23;20025;-62
2023/01/30 13:09:39;;;;;;;10.87;1.37;;;;;;;;;;6098140;23;20104;-62
2023/01/30 13:12:10;;;;;;;10.15;1.17;;;;;;;;;;6114950;23;20732;-63
2023/01/30 13:14:42;;;;;;;9.15;0.77;;;;;;;;;;6129012;23;20036;-62
2023/01/30 13:17:24;;;;;;;13.18;0.82;;;;;;;;;;6121431;23;20072;-63
2023/01/30 13:19:56;;;;;;;10.65;0.63;;;;;;;;;;6127981;23;20081;-62
2023/01/30 13:22:27;;;;;;;9.97;1.03;;;;;;;;;;6087031;23;20366;-62
2023/01/30 13:25:00;;;;;;;6.82;0.65;;;;;;;;;;6092709;23;20013;-62
2023/01/30 13:27:29;;;;;;;13.00;0.88;;;;;;;;;;6117050;23;20084;-62
2023/01/30 13:29:59;;;;;;;11.50;0.82;;;;;;;;;;6122884;23;20356;-62
2023/01/30 13:32:33;;;;;;;11.18;1.27;;;;;;;;;;6119061;23;20474;-62
2023/01/30 13:35:01;;;;;;;10.93;0.63;;;;;;;;;;6118849;23;20022;-60
2023/01/30 13:37:29;;;;;;;13.02;1.20;;;;;;;;;;6123799;23;20480;-62
2023/01/30 13:39:58;;;;;;;8.25;1.00;;;;;;;;;;6111694;23;20436;-62
2023/01/30 13:42:33;;;;;;;7.82;0.82;;;;;;;;;;6131429;23;20345;-62
2023/01/30 13:45:04;;;;;;;14.80;1.77;;;;;;;;;;6112374;23;20130;-59
2023/01/30 13:47:39;;;;;;;12.90;0.77;;;;;;;;;;6100391;23;20100;-62
2023/01/30 13:50:18;;;;;;;11.13;1.15;;;;;;;;;;6125708;23;20017;-62
2023/01/30 13:52:50;;;;;;;9.40;0.55;;;;;;;;;;6115542;23;20025;-62
2023/01/30 13:55:25;;;;;;;10.10;0.93;;;;;;;;;;6125373;23;20027;-61
2023/01/30 13:57:56;;;;;;;11.02;1.00;;;;;;;;;;6115825;23;20037;-62
2023/01/30 14:00:34;;;;;;;17.80;1.30;;;;;;;;;;6125319;23;20294;-62
2023/01/30 14:03:21;;;;;;;8.07;0.77;;;;;;;;;;6080979;23;20441;-63
2023/01/30 14:06:13;;;;;;;6.90;0.82;;;;;;;;;;6131430;23;20056;-62
2023/01/30 14:08:48;;;;;;;11.13;1.02;;;;;;;;;;6100227;23;20140;-60
2023/01/30 14:11:29;;;;;;;9.68;1.00;;;;;;;;;;6114120;23;20572;-63
2023/01/30 14:14:02;;;;;;;6.10;0.70;;;;;;;;;;6118983;23;20093;-62
2023/01/30 14:16:42;;;;;;;7.60;1.10;;;;;;;;;;6126959;23;20028;-62
2023/01/30 14:19:20;;;;;;;7.90;0.65;;;;;;;;;;6119004;23;20076;-62
2023/01/30 14:21:56;;;;;;;8.27;0.70;;;;;;;;;;6125904;23;20017;-62
2023/01/30 14:24:24;;;;;;;7.22;1.40;;;;;;;;;;6119689;23;20013;-62
2023/01/30 14:27:21;;;;;;;7.40;0.67;;;;;;;;;;6122301;23;20843;-62
2023/01/30 14:29:55;;;;;;;9.02;0.70;;;;;;;;;;6118696;23;20041;-59
2023/01/30 14:32:44;;;;;;;6.07;1.10;;;;;;;;;;6123630;23;20060;-62
2023/01/30 14:35:20;;;;;;;5.43;0.60;;;;;;;;;;6109676;23;20029;-61
2023/01/30 14:37:52;;;;;;;7.45;0.60;;;;;;;;;;6118900;23;20078;-61
2023/01/30 14:40:28;;;;;;;14.43;1.43;;;;;;;;;;6121583;23;20513;-62
2023/01/30 14:43:11;;;;;;;7.03;0.75;;;;;;;;;;6122405;23;20024;-62
2023/01/30 14:45:44;;;;;;;7.68;0.55;;;;;;;;;;6082821;23;20017;-61
2023/01/30 14:48:27;;;;;;;8.13;0.70;;;;;;;;;;6114422;23;20521;-61
2023/01/30 14:51:16;;;;;;;10.32;0.65;;;;;;;;;;6123698;23;20028;-62
2023/01/30 14:53:49;;;;;;;8.17;1.10;;;;;;;;;;6131022;23;20013;-62
2023/01/30 14:56:17;;;;;;;8.20;1.15;;;;;;;;;;6120199;23;20028;-61
2023/01/30 14:58:51;;;;;;;6.63;0.60;;;;;;;;;;6126406;23;20406;-61
2023/01/30 15:01:19;;;;;;;5.43;0.32;;;;;;;;;;6122318;23;20013;-62